Time;durP1;ratioP1;P1;durP2;ratioP2;P2;SDS_P1;SDS_P2;PMS_P1;PMS_P2;Temp;Humidity;BMP_temperature;BMP_pressure;BME280_temperature;BME280_humidity;BME280_pressure;Samples;Min_cycle;Max_cycle;Signal;HPM_P1;HPM_P2
2022/07/29 00:01:06;;;;;;;1.80;0.33;;;20.50;99.90;;;;;;5073022;28;20683;-81
2022/07/29 00:03:32;;;;;;;0.80;0.80;;;20.60;99.90;;;;;;5087278;28;20209;-81
2022/07/29 00:05:57;;;;;;;0.40;0.40;;;20.80;99.90;;;;;;5070910;28;20763;-80
2022/07/29 00:08:23;;;;;;;1.27;1.07;;;20.90;99.90;;;;;;5088854;28;20235;-80
2022/07/29 00:10:48;;;;;;;0.27;0.23;;;21.10;99.90;;;;;;5075471;28;20632;-80
2022/07/29 00:13:14;;;;;;;0.60;0.50;;;21.10;99.90;;;;;;5070705;28;20268;-80
2022/07/29 00:15:39;;;;;;;0.73;0.60;;;21.10;99.90;;;;;;5073560;28;20181;-80
2022/07/29 00:18:05;;;;;;;0.50;0.40;;;21.10;99.90;;;;;;5064326;28;20189;-81
2022/07/29 00:20:31;;;;;;;1.43;0.70;;;20.90;99.90;;;;;;5089097;28;20201;-80
2022/07/29 00:22:56;;;;;;;0.60;0.50;;;20.80;99.90;;;;;;5064625;28;20653;-80
2022/07/29 00:25:22;;;;;;;0.33;0.33;;;20.60;99.90;;;;;;5070938;28;20561;-80
2022/07/29 00:27:47;;;;;;;0.77;0.40;;;20.50;99.90;;;;;;5064843;28;20189;-81
2022/07/29 00:30:13;;;;;;;2.43;1.37;;;20.30;99.90;;;;;;5074932;28;20642;-80
2022/07/29 00:32:39;;;;;;;0.40;0.40;;;19.90;99.90;;;;;;5074145;28;20211;-80
2022/07/29 00:37:49;;;;;;;0.30;0.30;;;19.60;99.90;;;;;;5074083;28;20255;-80
2022/07/29 00:40:15;;;;;;;0.73;0.57;;;19.50;99.90;;;;;;5072834;28;20650;-80
2022/07/29 00:42:48;;;;;;;0.57;0.57;;;19.40;99.90;;;;;;5070321;28;20547;-80
2022/07/29 00:45:14;;;;;;;4.33;0.60;;;19.40;99.90;;;;;;5067406;28;20181;-80
2022/07/29 00:47:40;;;;;;;0.40;0.40;;;19.20;99.90;;;;;;5065233;28;20179;-80
2022/07/29 00:50:07;;;;;;;0.40;0.40;;;19.20;99.90;;;;;;5073893;28;20202;-80
2022/07/29 00:52:37;;;;;;;0.40;0.40;;;19.20;99.90;;;;;;5072504;28;20294;-80
2022/07/29 00:55:04;;;;;;;0.40;0.40;;;19.20;99.90;;;;;;5071878;28;20185;-81
2022/07/29 00:57:30;;;;;;;0.60;0.60;;;19.20;99.90;;;;;;5073281;28;20510;-80
2022/07/29 00:59:56;;;;;;;0.50;0.40;;;19.20;99.90;;;;;;5066683;28;20653;-80
2022/07/29 01:02:21;;;;;;;0.60;0.60;;;19.20;99.90;;;;;;5064189;28;20205;-81
2022/07/29 01:04:47;;;;;;;0.53;0.43;;;19.40;99.90;;;;;;5067287;28;20191;-80
2022/07/29 01:07:13;;;;;;;0.43;0.43;;;19.30;99.90;;;;;;5072989;28;20181;-80
2022/07/29 01:09:40;;;;;;;0.43;0.43;;;19.10;99.90;;;;;;5072233;28;20234;-80
2022/07/29 01:12:06;;;;;;;0.70;0.70;;;18.80;99.90;;;;;;5067449;28;20288;-80
2022/07/29 01:14:32;;;;;;;0.40;0.40;;;18.70;99.90;;;;;;5068729;28;20268;-80
2022/07/29 01:17:38;;;;;;;0.30;0.30;;;18.70;99.90;;;;;;5062464;28;20680;-80
2022/07/29 01:20:17;;;;;;;0.10;0.10;;;18.90;99.90;;;;;;5065490;28;20260;-80
2022/07/29 01:23:23;;;;;;;0.97;0.50;;;19.10;99.90;;;;;;5061328;28;20232;-80
2022/07/29 01:26:00;;;;;;;0.57;0.57;;;19.40;99.90;;;;;;5067065;28;20185;-80
2022/07/29 01:28:44;;;;;;;0.50;0.30;;;19.40;99.90;;;;;;5067415;28;20181;-80
2022/07/29 01:31:14;;;;;;;1.00;0.53;;;19.40;99.90;;;;;;5066100;28;20197;-80
2022/07/29 01:33:50;;;;;;;0.57;0.57;;;19.40;99.90;;;;;;5072357;28;20189;-80
2022/07/29 01:36:32;;;;;;;0.40;0.40;;;19.40;99.90;;;;;;5062316;28;20675;-80
2022/07/29 01:39:12;;;;;;;0.97;0.53;;;19.30;99.90;;;;;;5061976;28;20184;-80
2022/07/29 01:41:47;;;;;;;0.30;0.30;;;19.30;99.90;;;;;;5068946;28;20220;-81
2022/07/29 01:44:22;;;;;;;0.30;0.30;;;19.40;99.90;;;;;;5065030;28;20208;-80
2022/07/29 01:46:55;;;;;;;0.53;0.53;;;19.50;99.90;;;;;;5068126;28;20658;-80
2022/07/29 01:49:26;;;;;;;0.50;0.43;;;19.70;99.90;;;;;;5071973;28;20208;-80
2022/07/29 01:52:10;;;;;;;0.37;0.37;;;19.70;99.90;;;;;;5065939;28;20243;-80
2022/07/29 01:54:45;;;;;;;0.37;0.30;;;19.40;99.90;;;;;;5067891;28;20185;-79
2022/07/29 01:57:13;;;;;;;0.60;0.60;;;19.10;99.90;;;;;;5066350;28;20188;-80
2022/07/29 01:59:41;;;;;;;0.63;0.63;;;19.00;99.90;;;;;;5063118;28;20711;-80
2022/07/29 02:02:09;;;;;;;0.63;0.60;;;18.30;99.90;;;;;;5085859;28;20220;-80
2022/07/29 02:04:36;;;;;;;0.83;0.80;;;17.90;99.90;;;;;;5066833;28;20189;-80
2022/07/29 02:07:06;;;;;;;0.23;0.23;;;17.90;99.90;;;;;;5069678;28;20196;-80
2022/07/29 02:09:35;;;;;;;0.77;0.77;;;18.00;99.90;;;;;;5071636;28;20196;-80
2022/07/29 02:12:03;;;;;;;0.40;0.40;;;18.10;99.90;;;;;;5085097;28;20311;-80
2022/07/29 02:14:33;;;;;;;0.40;0.40;;;18.30;99.90;;;;;;5072911;28;20193;-80
2022/07/29 02:17:01;;;;;;;0.50;0.50;;;18.10;99.90;;;;;;5063338;28;20195;-80
2022/07/29 02:19:29;;;;;;;0.60;0.60;;;17.70;99.90;;;;;;5070374;28;20185;-81
2022/07/29 02:21:57;;;;;;;0.73;0.73;;;17.30;99.90;;;;;;5065165;28;20246;-81
2022/07/29 02:24:24;;;;;;;0.50;0.50;;;17.10;99.90;;;;;;5063458;28;20185;-80
2022/07/29 02:26:50;;;;;;;0.40;0.40;;;17.40;99.90;;;;;;5069944;28;20628;-80
2022/07/29 02:29:18;;;;;;;0.20;0.20;;;17.70;99.90;;;;;;5062599;28;20189;-80
2022/07/29 02:31:46;;;;;;;0.40;0.40;;;17.90;99.90;;;;;;5065958;28;20216;-80
2022/07/29 02:34:14;;;;;;;0.73;0.63;;;17.90;99.90;;;;;;5062766;28;20194;-80
2022/07/29 02:36:41;;;;;;;0.87;0.80;;;17.60;99.90;;;;;;5069250;28;20194;-80
2022/07/29 02:39:08;;;;;;;0.53;0.47;;;17.30;99.90;;;;;;5065771;28;20195;-80
2022/07/29 02:41:42;;;;;;;2.57;1.37;;;17.20;99.90;;;;;;5062635;28;20213;-80
2022/07/29 02:44:14;;;;;;;0.40;0.40;;;17.10;99.90;;;;;;5067909;28;20181;-79
2022/07/29 02:46:58;;;;;;;0.97;0.30;;;17.00;99.90;;;;;;5066840;28;20192;-80
2022/07/29 02:49:36;;;;;;;0.90;0.90;;;17.00;99.90;;;;;;5065343;28;20196;-80
2022/07/29 02:52:10;;;;;;;0.97;0.50;;;17.10;99.90;;;;;;5064706;28;20216;-79
2022/07/29 02:55:06;;;;;;;0.60;0.60;;;17.30;99.90;;;;;;5067514;28;20224;-79
2022/07/29 02:57:46;;;;;;;0.40;0.40;;;17.40;99.90;;;;;;5061332;28;20185;-79
2022/07/29 03:00:12;;;;;;;0.47;0.47;;;17.50;99.90;;;;;;5060760;28;20245;-80
2022/07/29 03:02:42;;;;;;;0.53;0.50;;;17.50;99.90;;;;;;5065742;28;20209;-80
2022/07/29 03:05:12;;;;;;;1.20;0.60;;;17.40;99.90;;;;;;5064645;28;20181;-80
2022/07/29 03:07:40;;;;;;;0.20;0.20;;;17.50;99.90;;;;;;5068800;28;20188;-80
2022/07/29 03:10:08;;;;;;;0.40;0.40;;;17.50;99.90;;;;;;5067368;28;20189;-79
2022/07/29 03:12:33;;;;;;;0.23;0.23;;;17.40;99.90;;;;;;5066609;28;20323;-79
2022/07/29 03:15:01;;;;;;;0.50;0.50;;;17.40;99.90;;;;;;5075336;28;20189;-79
2022/07/29 03:17:27;;;;;;;0.50;0.50;;;17.40;99.90;;;;;;5085748;28;20246;-80
2022/07/29 03:19:54;;;;;;;0.23;0.23;;;17.40;99.90;;;;;;5072742;28;20232;-80
2022/07/29 03:22:20;;;;;;;0.33;0.33;;;17.30;99.90;;;;;;5066942;28;20213;-80
2022/07/29 03:24:46;;;;;;;0.40;0.40;;;17.40;99.90;;;;;;5086854;28;20215;-80
2022/07/29 03:27:11;;;;;;;0.20;0.20;;;17.40;99.90;;;;;;5065672;28;20174;-79
2022/07/29 03:29:37;;;;;;;0.20;0.20;;;17.50;99.90;;;;;;5066221;28;20187;-80
2022/07/29 03:32:04;;;;;;;0.40;0.40;;;17.70;99.90;;;;;;5065405;28;20201;-80
2022/07/29 03:34:30;;;;;;;0.23;0.23;;;17.60;99.90;;;;;;5064459;28;20180;-80
2022/07/29 03:36:55;;;;;;;0.50;0.50;;;17.70;99.90;;;;;;5064614;28;20193;-80
2022/07/29 03:39:24;;;;;;;0.50;0.50;;;17.70;99.90;;;;;;5067611;28;20634;-80
2022/07/29 03:41:53;;;;;;;0.23;0.23;;;17.50;99.90;;;;;;5066599;28;20302;-80
2022/07/29 03:44:20;;;;;;;0.83;0.50;;;17.40;99.90;;;;;;5065350;28;20181;-80
2022/07/29 03:46:47;;;;;;;0.57;0.53;;;17.50;99.90;;;;;;5086589;28;20199;-80
2022/07/29 03:49:15;;;;;;;0.20;0.20;;;17.50;99.90;;;;;;5066321;28;20690;-80
2022/07/29 03:51:41;;;;;;;0.90;0.73;;;17.60;99.90;;;;;;5073093;28;20258;-80
2022/07/29 03:54:07;;;;;;;0.83;0.47;;;17.70;99.90;;;;;;5069878;28;20196;-80
2022/07/29 03:56:38;;;;;;;0.80;0.80;;;17.80;99.90;;;;;;5064098;28;20199;-80
2022/07/29 03:59:04;;;;;;;0.50;0.40;;;17.90;99.90;;;;;;5072870;28;20209;-80
2022/07/29 04:01:32;;;;;;;1.03;0.60;;;18.00;99.90;;;;;;5086693;28;20246;-80
2022/07/29 04:03:58;;;;;;;0.40;0.40;;;18.10;99.90;;;;;;5084516;28;20186;-80
2022/07/29 04:06:25;;;;;;;0.30;0.30;;;18.20;99.90;;;;;;5073959;28;20601;-80
2022/07/29 04:08:51;;;;;;;1.23;0.40;;;18.30;99.90;;;;;;5067561;28;20685;-80
2022/07/29 04:11:16;;;;;;;0.37;0.37;;;18.30;99.90;;;;;;5066261;28;20201;-80
2022/07/29 04:13:42;;;;;;;0.53;0.43;;;18.40;99.90;;;;;;5086440;28;20189;-80
2022/07/29 04:16:08;;;;;;;0.30;0.30;;;18.40;99.90;;;;;;5060987;28;20217;-80
2022/07/29 04:18:33;;;;;;;0.23;0.23;;;18.40;99.90;;;;;;5074922;28;20561;-80
2022/07/29 04:21:00;;;;;;;0.77;0.77;;;18.40;99.90;;;;;;5068297;28;20258;-79
2022/07/29 04:23:26;;;;;;;1.53;0.80;;;18.50;99.90;;;;;;5074307;28;20197;-80
2022/07/29 04:25:52;;;;;;;0.23;0.23;;;18.50;99.90;;;;;;5069792;28;20517;-80
2022/07/29 04:28:18;;;;;;;0.87;0.37;;;18.50;99.90;;;;;;5068051;28;20673;-80
2022/07/29 04:30:43;;;;;;;1.40;1.30;;;18.50;99.90;;;;;;5071812;28;20212;-80
2022/07/29 04:33:09;;;;;;;0.47;0.47;;;18.50;99.90;;;;;;5070821;28;20192;-80
2022/07/29 04:35:36;;;;;;;0.60;0.60;;;18.50;99.90;;;;;;5071279;28;20195;-80
2022/07/29 04:38:03;;;;;;;4.83;0.67;;;18.70;99.90;;;;;;5091146;28;20177;-80
2022/07/29 04:40:29;;;;;;;0.40;0.40;;;18.90;99.90;;;;;;5071976;28;20288;-81
2022/07/29 04:42:54;;;;;;;0.50;0.50;;;19.00;99.90;;;;;;5067635;28;20293;-80
2022/07/29 04:45:20;;;;;;;0.20;0.20;;;19.10;99.90;;;;;;5069507;28;20592;-80
2022/07/29 04:47:46;;;;;;;0.30;0.30;;;19.20;99.90;;;;;;5073121;28;20732;-80
2022/07/29 04:50:11;;;;;;;0.43;0.43;;;18.90;99.90;;;;;;5074349;28;20200;-80
2022/07/29 04:52:37;;;;;;;0.63;0.63;;;18.60;99.90;;;;;;5072130;28;20176;-80
2022/07/29 04:55:04;;;;;;;1.43;0.60;;;18.30;99.90;;;;;;5066448;28;20598;-80
2022/07/29 04:57:30;;;;;;;0.67;0.47;;;18.20;99.90;;;;;;5059910;28;20173;-80
2022/07/29 04:59:55;;;;;;;3.40;0.50;;;18.00;99.90;;;;;;5060517;28;20217;-80
2022/07/29 05:02:21;;;;;;;0.67;0.67;;;18.00;99.90;;;;;;5070169;28;20208;-80
2022/07/29 05:04:47;;;;;;;0.47;0.47;;;17.90;99.90;;;;;;5066674;28;20177;-80
2022/07/29 05:07:12;;;;;;;0.40;0.40;;;18.10;99.90;;;;;;5068606;28;20165;-80
2022/07/29 05:09:38;;;;;;;0.30;0.30;;;18.20;99.90;;;;;;5074336;28;20268;-83
2022/07/29 05:12:04;;;;;;;0.30;0.30;;;18.30;99.90;;;;;;5068824;28;20519;-80
2022/07/29 05:14:30;;;;;;;1.13;0.83;;;18.50;99.90;;;;;;5072506;28;20177;-79
2022/07/29 05:16:56;;;;;;;1.07;0.50;;;18.60;99.90;;;;;;5057807;28;20177;-79
2022/07/29 05:19:23;;;;;;;1.03;0.57;;;18.70;99.90;;;;;;5065779;28;20180;-79
2022/07/29 05:21:48;;;;;;;0.60;0.60;;;18.90;99.90;;;;;;5069834;28;20242;-79
2022/07/29 05:24:14;;;;;;;0.30;0.30;;;19.10;99.90;;;;;;5072841;28;20185;-80
2022/07/29 05:26:40;;;;;;;0.50;0.50;;;19.30;99.90;;;;;;5068995;28;20207;-78
2022/07/29 05:29:05;;;;;;;0.90;0.70;;;19.50;99.90;;;;;;5065755;28;20226;-77
2022/07/29 05:31:31;;;;;;;0.40;0.40;;;19.60;99.90;;;;;;5058934;28;20831;-78
2022/07/29 05:33:57;;;;;;;0.53;0.53;;;19.80;99.90;;;;;;5061777;28;20550;-77
2022/07/29 05:36:22;;;;;;;1.83;1.07;;;19.40;99.90;;;;;;5070891;28;20181;-78
2022/07/29 05:38:48;;;;;;;0.40;0.40;;;19.30;99.90;;;;;;5064258;28;20173;-79
2022/07/29 05:41:13;;;;;;;0.40;0.40;;;19.60;99.90;;;;;;5073098;28;20193;-79
2022/07/29 05:43:39;;;;;;;0.60;0.50;;;19.80;99.90;;;;;;5082364;28;20208;-79
2022/07/29 05:46:04;;;;;;;0.27;0.27;;;19.90;99.90;;;;;;5071229;28;20708;-79
2022/07/29 05:48:30;;;;;;;0.47;0.47;;;20.10;99.90;;;;;;5068631;28;20193;-79
2022/07/29 05:50:55;;;;;;;1.83;0.70;;;20.20;99.90;;;;;;5068525;28;20205;-79
2022/07/29 05:53:21;;;;;;;0.43;0.30;;;20.30;99.90;;;;;;5064303;28;20185;-79
2022/07/29 05:55:48;;;;;;;0.57;0.40;;;20.50;99.90;;;;;;5056982;28;20186;-79
2022/07/29 05:58:13;;;;;;;0.63;0.63;;;20.60;99.90;;;;;;5069903;28;20189;-79
2022/07/29 06:00:39;;;;;;;0.37;0.30;;;20.80;99.90;;;;;;5070364;28;20300;-79
2022/07/29 06:03:05;;;;;;;0.30;0.30;;;20.90;99.90;;;;;;5063633;28;20208;-79
2022/07/29 06:05:30;;;;;;;2.17;0.50;;;21.10;99.90;;;;;;5066977;28;20181;-79
2022/07/29 06:07:56;;;;;;;0.30;0.30;;;21.20;99.90;;;;;;5064696;28;20181;-79
2022/07/29 06:10:22;;;;;;;1.47;0.67;;;21.30;99.90;;;;;;5065708;28;20197;-79
2022/07/29 06:12:47;;;;;;;0.47;0.37;;;21.30;99.90;;;;;;5060433;28;20188;-80
2022/07/29 06:15:13;;;;;;;0.40;0.40;;;21.50;99.90;;;;;;5061814;28;20189;-79
2022/07/29 06:17:38;;;;;;;0.53;0.53;;;21.50;99.90;;;;;;5063329;28;20189;-79
2022/07/29 06:20:04;;;;;;;0.20;0.20;;;21.80;99.90;;;;;;5064777;28;20189;-79
2022/07/29 06:22:30;;;;;;;0.70;0.70;;;22.00;99.90;;;;;;5058073;28;20205;-79
2022/07/29 06:24:55;;;;;;;0.50;0.50;;;22.20;99.90;;;;;;5061874;28;20553;-79
2022/07/29 06:27:21;;;;;;;0.83;0.50;;;22.30;99.90;;;;;;5060737;28;20185;-79
2022/07/29 06:29:47;;;;;;;0.40;0.40;;;22.50;99.90;;;;;;5067939;28;20883;-79
2022/07/29 06:32:13;;;;;;;0.23;0.23;;;22.70;99.90;;;;;;5066156;28;20209;-79
2022/07/29 06:34:38;;;;;;;0.30;0.30;;;22.90;99.90;;;;;;5068354;28;20189;-79
2022/07/29 06:37:08;;;;;;;0.60;0.60;;;23.10;99.90;;;;;;5059899;28;20299;-79
2022/07/29 06:39:36;;;;;;;1.07;0.50;;;23.10;99.90;;;;;;5067208;28;20268;-79
2022/07/29 06:42:04;;;;;;;0.60;0.50;;;23.30;99.90;;;;;;5058839;28;20212;-80
2022/07/29 06:44:29;;;;;;;0.40;0.40;;;23.40;99.90;;;;;;5061688;28;20199;-80
2022/07/29 06:46:55;;;;;;;0.63;0.63;;;23.60;99.90;;;;;;5064662;28;20181;-79
2022/07/29 06:49:21;;;;;;;0.60;0.60;;;23.80;99.90;;;;;;5070115;28;20199;-80
2022/07/29 06:51:47;;;;;;;0.90;0.90;;;23.80;99.90;;;;;;5070895;28;20284;-79
2022/07/29 06:54:12;;;;;;;0.30;0.30;;;23.40;99.90;;;;;;5072734;28;20238;-79
2022/07/29 06:56:40;;;;;;;0.30;0.30;;;23.70;99.90;;;;;;5066804;28;20196;-79
2022/07/29 06:59:08;;;;;;;0.50;0.50;;;23.70;99.90;;;;;;5086570;28;20212;-79
2022/07/29 07:01:34;;;;;;;1.10;1.10;;;23.70;99.90;;;;;;5071632;28;20211;-79
2022/07/29 07:04:00;;;;;;;0.53;0.50;;;23.90;99.90;;;;;;5070198;28;20173;-82
2022/07/29 07:06:25;;;;;;;0.70;0.70;;;24.00;99.90;;;;;;5070597;28;20239;-82
2022/07/29 07:08:51;;;;;;;0.40;0.40;;;24.10;99.90;;;;;;5074526;28;20698;-79
2022/07/29 07:11:16;;;;;;;1.13;1.13;;;24.50;99.90;;;;;;5070159;28;20573;-79
2022/07/29 07:13:42;;;;;;;0.73;0.73;;;24.90;99.90;;;;;;5068104;28;20276;-79
2022/07/29 07:16:07;;;;;;;1.97;1.07;;;25.10;99.90;;;;;;5068197;28;20197;-82
2022/07/29 07:18:33;;;;;;;0.70;0.70;;;25.30;99.90;;;;;;5093551;28;20193;-81
2022/07/29 07:20:58;;;;;;;0.97;0.60;;;24.70;99.90;;;;;;5073302;28;20204;-79
2022/07/29 07:23:24;;;;;;;0.77;0.50;;;25.10;99.90;;;;;;5071451;28;20217;-79
2022/07/29 07:25:50;;;;;;;1.00;1.00;;;25.60;99.90;;;;;;5074441;28;20208;-79
2022/07/29 07:28:15;;;;;;;1.30;1.20;;;25.50;99.90;;;;;;5065384;28;20219;-79
2022/07/29 07:30:41;;;;;;;0.50;0.50;;;25.10;99.90;;;;;;5068459;28;20196;-80
2022/07/29 07:33:06;;;;;;;0.47;0.33;;;25.10;99.90;;;;;;5061505;28;20302;-80
2022/07/29 07:35:32;;;;;;;0.50;0.50;;;24.70;99.90;;;;;;5068581;28;20181;-79
2022/07/29 07:37:58;;;;;;;2.83;0.77;;;25.00;99.90;;;;;;5068315;28;20212;-79
2022/07/29 07:40:24;;;;;;;0.83;0.50;;;25.10;99.90;;;;;;5070412;28;20567;-79
2022/07/29 07:42:49;;;;;;;0.70;0.70;;;25.00;99.90;;;;;;5072674;28;20204;-80
2022/07/29 07:45:15;;;;;;;0.63;0.63;;;25.00;99.90;;;;;;5068866;28;20177;-80
2022/07/29 07:47:41;;;;;;;1.77;0.70;;;25.30;99.90;;;;;;5071108;28;20543;-80
2022/07/29 07:50:09;;;;;;;0.97;0.60;;;25.30;99.90;;;;;;5069260;28;20197;-79
2022/07/29 07:52:45;;;;;;;0.50;0.50;;;25.50;99.90;;;;;;5072249;28;20193;-80
2022/07/29 07:55:10;;;;;;;1.53;0.90;;;25.50;99.90;;;;;;5067606;28;20230;-85
2022/07/29 07:57:36;;;;;;;1.40;0.83;;;25.50;99.90;;;;;;5064972;28;20185;-80
2022/07/29 08:00:02;;;;;;;0.40;0.40;;;25.20;99.90;;;;;;5064656;28;20483;-81
2022/07/29 08:02:28;;;;;;;0.70;0.70;;;25.40;99.90;;;;;;5071725;28;20588;-80
2022/07/29 08:04:53;;;;;;;0.70;0.70;;;25.80;99.90;;;;;;5068519;28;20650;-79
2022/07/29 08:07:19;;;;;;;0.63;0.63;;;25.80;99.90;;;;;;5072037;28;20177;-80
2022/07/29 08:09:44;;;;;;;0.60;0.60;;;26.20;99.90;;;;;;5072137;28;20182;-80
2022/07/29 08:12:10;;;;;;;0.80;0.80;;;25.60;99.90;;;;;;5083479;28;20197;-79
2022/07/29 08:14:35;;;;;;;0.97;0.67;;;25.40;99.90;;;;;;5073769;28;20210;-80
2022/07/29 08:17:01;;;;;;;0.47;0.47;;;25.10;99.90;;;;;;5071809;28;20274;-79
2022/07/29 08:19:27;;;;;;;0.70;0.70;;;25.70;99.90;;;;;;5068599;28;20558;-80
2022/07/29 08:21:53;;;;;;;0.40;0.40;;;26.00;99.90;;;;;;5065438;28;20685;-80
2022/07/29 08:27:03;;;;;;;0.83;0.63;;;25.60;99.90;;;;;;5069557;28;20325;-80
2022/07/29 08:29:28;;;;;;;0.50;0.50;;;26.20;99.90;;;;;;5068602;28;20613;-80
2022/07/29 08:31:54;;;;;;;0.37;0.33;;;26.60;99.90;;;;;;5065980;28;20202;-80
2022/07/29 08:34:19;;;;;;;0.73;0.73;;;27.00;99.90;;;;;;5061495;28;20182;-80
2022/07/29 08:36:45;;;;;;;1.53;1.43;;;27.60;99.90;;;;;;5070935;28;20192;-81
2022/07/29 08:39:10;;;;;;;0.97;0.70;;;27.10;99.90;;;;;;5075985;28;20269;-80
2022/07/29 08:41:36;;;;;;;0.97;0.60;;;26.60;99.90;;;;;;5061518;28;20236;-80
2022/07/29 08:44:01;;;;;;;1.17;0.80;;;26.70;99.90;;;;;;5075209;28;20192;-80
2022/07/29 08:46:27;;;;;;;0.53;0.53;;;26.40;99.90;;;;;;5069436;28;20221;-80
2022/07/29 08:48:53;;;;;;;0.40;0.40;;;26.80;99.90;;;;;;5065591;28;20193;-80
2022/07/29 08:51:20;;;;;;;0.80;0.80;;;26.80;99.90;;;;;;5072765;28;20201;-80
2022/07/29 08:53:48;;;;;;;0.80;0.70;;;27.70;99.90;;;;;;5089925;28;20197;-81
2022/07/29 08:56:16;;;;;;;0.43;0.43;;;28.40;99.90;;;;;;5065729;28;20177;-81
2022/07/29 08:58:42;;;;;;;0.50;0.50;;;28.60;99.90;;;;;;5067225;28;20208;-81
2022/07/29 09:01:10;;;;;;;0.70;0.70;;;28.90;99.90;;;;;;5072585;28;20208;-80
2022/07/29 09:03:37;;;;;;;1.30;0.77;;;28.60;99.90;;;;;;5066772;28;20667;-80
2022/07/29 09:06:03;;;;;;;0.73;0.73;;;28.80;99.90;;;;;;5068757;28;20642;-80
2022/07/29 09:08:31;;;;;;;1.17;0.80;;;29.20;99.90;;;;;;5066199;28;20228;-80
2022/07/29 09:10:58;;;;;;;0.30;0.30;;;28.70;99.90;;;;;;5070764;28;20266;-80
2022/07/29 09:13:24;;;;;;;0.68;0.68;;;28.50;99.90;;;;;;5068383;28;20649;-80
2022/07/29 09:15:50;;;;;;;0.65;0.65;;;28.70;99.90;;;;;;5060563;28;20185;-80
2022/07/29 09:18:38;;;;;;;2.70;0.75;;;28.10;99.90;;;;;;5064621;28;20815;-80
2022/07/29 09:24:01;;;;;;;0.68;0.57;;;27.00;99.90;;;;;;5073642;28;20580;-80
2022/07/29 09:26:31;;;;;;;0.60;0.60;;;27.30;99.90;;;;;;5069438;28;20277;-81
2022/07/29 09:28:57;;;;;;;0.45;0.45;;;27.60;99.90;;;;;;5070765;28;20200;-80
2022/07/29 09:31:35;;;;;;;0.50;0.50;;;27.60;99.90;;;;;;5067885;28;20205;-81
2022/07/29 09:34:01;;;;;;;1.05;0.93;;;27.70;99.90;;;;;;5064621;28;20188;-79
2022/07/29 09:36:26;;;;;;;1.47;1.17;;;28.10;99.90;;;;;;5063884;28;20189;-79
2022/07/29 09:39:00;;;;;;;0.40;0.40;;;28.40;99.90;;;;;;5071362;28;20213;-79
2022/07/29 09:41:29;;;;;;;0.90;0.65;;;28.80;99.90;;;;;;5060897;28;20209;-80
2022/07/29 09:43:58;;;;;;;0.40;0.40;;;29.00;99.90;;;;;;5066583;28;20315;-80
2022/07/29 09:46:24;;;;;;;0.50;0.50;;;29.50;99.90;;;;;;5070231;28;20216;-79
2022/07/29 09:49:07;;;;;;;0.75;0.75;;;29.30;99.90;;;;;;5067503;28;20196;-79
2022/07/29 09:51:33;;;;;;;1.55;0.85;;;29.00;99.90;;;;;;5070008;28;20258;-79
2022/07/29 09:54:00;;;;;;;1.05;0.95;;;29.00;99.90;;;;;;5072996;28;20189;-81
2022/07/29 09:56:39;;;;;;;0.32;0.32;;;29.30;99.90;;;;;;5070752;28;20176;-81
2022/07/29 09:59:08;;;;;;;0.70;0.63;;;29.30;99.90;;;;;;5069284;28;20230;-79
2022/07/29 10:01:35;;;;;;;1.52;0.93;;;28.80;99.90;;;;;;5082249;28;20201;-79
2022/07/29 10:04:01;;;;;;;0.75;0.75;;;28.60;99.90;;;;;;5070365;28;20191;-80
2022/07/29 10:06:27;;;;;;;0.55;0.55;;;28.80;99.90;;;;;;5073933;28;20181;-80
2022/07/29 10:08:53;;;;;;;1.40;0.82;;;29.20;99.90;;;;;;5071319;28;20177;-80
2022/07/29 10:11:19;;;;;;;0.65;0.65;;;29.20;99.90;;;;;;5068794;28;20204;-80
2022/07/29 10:13:47;;;;;;;0.80;0.80;;;29.50;99.90;;;;;;5072528;28;20177;-80
2022/07/29 10:16:14;;;;;;;0.80;0.80;;;29.40;99.90;;;;;;5068744;28;20205;-80
2022/07/29 10:18:40;;;;;;;0.80;0.80;;;29.60;99.90;;;;;;5071068;28;20708;-80
2022/07/29 10:21:07;;;;;;;1.05;0.98;;;29.10;99.90;;;;;;5067883;28;20216;-81
2022/07/29 10:23:34;;;;;;;1.30;0.90;;;28.70;99.90;;;;;;5069943;28;20236;-81
2022/07/29 10:26:00;;;;;;;0.60;0.60;;;28.40;99.90;;;;;;5070402;28;20185;-80
2022/07/29 10:28:25;;;;;;;0.80;0.70;;;28.40;99.90;;;;;;5065029;28;20549;-80
2022/07/29 10:30:58;;;;;;;0.73;0.73;;;28.70;99.90;;;;;;5073522;28;20201;-80
2022/07/29 10:33:39;;;;;;;0.52;0.50;;;29.10;99.90;;;;;;5073607;28;20188;-80
2022/07/29 10:36:25;;;;;;;1.40;0.95;;;29.50;99.90;;;;;;5066303;28;20185;-80
2022/07/29 10:39:24;;;;;;;1.42;0.98;;;29.40;99.90;;;;;;5060340;28;20339;-80
2022/07/29 10:42:06;;;;;;;0.85;0.80;;;29.20;99.90;;;;;;5077153;28;20217;-80
2022/07/29 10:44:33;;;;;;;1.33;1.05;;;28.90;99.90;;;;;;5069181;28;20196;-81
2022/07/29 10:46:58;;;;;;;0.60;0.60;;;28.80;99.90;;;;;;5068352;28;20187;-80
2022/07/29 10:49:26;;;;;;;0.98;0.98;;;28.30;99.90;;;;;;5073980;28;20197;-80
2022/07/29 10:52:07;;;;;;;1.40;0.95;;;29.00;99.90;;;;;;5068383;28;20225;-80
2022/07/29 10:54:35;;;;;;;0.88;0.60;;;29.30;99.90;;;;;;5062669;28;20658;-80
2022/07/29 10:57:27;;;;;;;1.20;0.80;;;30.00;99.90;;;;;;5067308;28;20710;-80
2022/07/29 11:00:04;;;;;;;0.45;0.45;;;30.50;99.90;;;;;;5071329;28;20187;-80
2022/07/29 11:02:33;;;;;;;1.10;1.10;;;30.90;99.90;;;;;;5066697;28;20204;-80
2022/07/29 11:05:05;;;;;;;1.05;1.05;;;30.90;99.90;;;;;;5070036;28;20185;-81
2022/07/29 11:07:34;;;;;;;0.80;0.80;;;31.00;99.90;;;;;;5072718;28;20177;-78
2022/07/29 11:10:15;;;;;;;0.52;0.52;;;31.20;99.90;;;;;;5069700;28;20565;-79
2022/07/29 11:12:43;;;;;;;0.80;0.80;;;30.70;99.90;;;;;;5068586;28;20721;-79
2022/07/29 11:15:18;;;;;;;0.80;0.80;;;30.70;99.90;;;;;;5066340;28;20197;-78
2022/07/29 11:18:00;;;;;;;0.65;0.65;;;30.90;99.90;;;;;;5066574;28;20180;-79
2022/07/29 11:20:45;;;;;;;0.63;0.60;;;31.00;99.90;;;;;;5067128;28;20204;-79
2022/07/29 11:23:27;;;;;;;0.75;0.75;;;31.30;99.90;;;;;;5067123;28;20209;-79
2022/07/29 11:26:21;;;;;;;0.93;0.80;;;31.20;99.90;;;;;;5069627;28;21876;-79
2022/07/29 11:29:08;;;;;;;0.75;0.60;;;31.20;99.90;;;;;;5071620;28;20191;-79
2022/07/29 11:31:41;;;;;;;0.60;0.60;;;31.30;99.90;;;;;;5077981;28;20200;-80
2022/07/29 11:34:20;;;;;;;0.40;0.40;;;31.00;99.90;;;;;;5067099;28;20169;-80
2022/07/29 11:37:12;;;;;;;1.70;0.88;;;31.10;99.90;;;;;;5072882;28;20212;-80
2022/07/29 11:40:04;;;;;;;0.40;0.40;;;31.30;99.90;;;;;;5070720;28;20192;-80
2022/07/29 11:42:36;;;;;;;1.38;1.27;;;31.20;99.90;;;;;;5069917;28;20205;-79
2022/07/29 11:45:13;;;;;;;0.82;0.82;;;31.00;99.90;;;;;;5071236;28;20188;-80
2022/07/29 11:47:48;;;;;;;0.50;0.50;;;31.40;99.90;;;;;;5081660;28;20218;-80
2022/07/29 11:50:16;;;;;;;0.77;0.77;;;31.40;99.90;;;;;;5070523;28;20196;-80
2022/07/29 11:52:46;;;;;;;0.80;0.80;;;31.70;99.90;;;;;;5071829;28;20209;-80
2022/07/29 11:55:22;;;;;;;0.80;0.75;;;31.70;99.90;;;;;;5067435;28;20200;-80
2022/07/29 11:57:49;;;;;;;0.82;0.82;;;31.40;99.90;;;;;;5073275;28;20188;-81
2022/07/29 12:00:42;;;;;;;1.15;0.80;;;30.60;99.90;;;;;;5077305;28;20253;-80
2022/07/29 12:03:10;;;;;;;1.08;0.88;;;30.90;99.90;;;;;;5068957;28;20217;-80
2022/07/29 12:05:40;;;;;;;0.85;0.85;;;30.80;99.90;;;;;;5072314;28;20185;-80
2022/07/29 12:08:21;;;;;;;1.33;1.23;;;30.60;99.90;;;;;;5072582;28;20183;-80
2022/07/29 12:10:51;;;;;;;0.68;0.68;;;31.20;99.90;;;;;;5074911;28;20681;-80
2022/07/29 12:13:19;;;;;;;6.63;2.28;;;30.50;99.90;;;;;;5071176;28;20186;-80
2022/07/29 12:16:00;;;;;;;0.85;0.85;;;29.70;99.90;;;;;;5077486;28;20196;-80
2022/07/29 12:18:26;;;;;;;1.05;1.02;;;29.80;99.90;;;;;;5072679;28;20234;-80
2022/07/29 12:20:59;;;;;;;0.57;0.57;;;29.80;99.90;;;;;;5075977;28;20561;-80
2022/07/29 12:23:25;;;;;;;1.08;0.75;;;30.30;99.90;;;;;;5075364;28;20209;-80
2022/07/29 12:25:50;;;;;;;0.30;0.30;;;30.50;99.90;;;;;;5068305;28;20651;-80
2022/07/29 12:28:18;;;;;;;1.15;1.15;;;31.10;99.90;;;;;;5068352;28;20281;-79
2022/07/29 12:30:48;;;;;;;1.23;0.98;;;30.90;99.90;;;;;;5070891;28;20197;-79
2022/07/29 12:33:27;;;;;;;0.43;0.43;;;31.50;99.90;;;;;;5071091;28;20700;-79
2022/07/29 12:36:01;;;;;;;1.27;1.00;;;31.50;99.90;;;;;;5064774;28;20185;-79
2022/07/29 12:38:28;;;;;;;0.60;0.60;;;31.70;99.90;;;;;;5090113;28;20214;-79
2022/07/29 12:40:54;;;;;;;0.75;0.75;;;32.20;99.90;;;;;;5064530;28;20215;-79
2022/07/29 12:43:21;;;;;;;0.50;0.50;;;32.70;99.90;;;;;;5070705;28;20206;-79
2022/07/29 12:45:57;;;;;;;0.50;0.50;;;32.70;99.90;;;;;;5072918;28;20187;-80
2022/07/29 12:48:38;;;;;;;1.08;0.43;;;32.80;99.90;;;;;;5069013;28;20217;-80
2022/07/29 12:51:06;;;;;;;0.80;0.80;;;33.00;99.90;;;;;;5071515;28;20291;-80
2022/07/29 12:53:32;;;;;;;0.77;0.77;;;33.20;99.90;;;;;;5064583;28;20216;-79
2022/07/29 12:56:01;;;;;;;0.60;0.60;;;33.20;99.90;;;;;;5071710;28;20217;-80
2022/07/29 12:58:35;;;;;;;0.80;0.80;;;33.10;99.90;;;;;;5088135;28;20191;-80
2022/07/29 13:01:14;;;;;;;1.20;0.90;;;32.40;99.90;;;;;;5072451;28;20209;-80
2022/07/29 13:03:46;;;;;;;1.60;1.02;;;31.40;99.90;;;;;;5057960;28;20197;-80
2022/07/29 13:06:37;;;;;;;2.03;1.83;;;30.70;99.90;;;;;;5070636;28;20189;-80